createdAt,value
2018-12-14T00:00:29.752Z,21.73
2018-12-14T00:02:57.957Z,21.17
2018-12-14T00:05:26.160Z,19.43
2018-12-14T00:07:54.272Z,21.10
2018-12-14T00:10:22.386Z,21.83
2018-12-14T00:12:50.578Z,21.63
2018-12-14T00:15:18.821Z,19.87
2018-12-14T00:17:47.005Z,21.73
2018-12-14T00:20:15.246Z,21.67
2018-12-14T00:22:43.509Z,20.43
2018-12-14T00:25:11.803Z,20.97
2018-12-14T00:27:40.090Z,19.10
2018-12-14T00:30:08.884Z,19.30
2018-12-14T00:32:37.061Z,19.57
2018-12-14T00:35:05.882Z,20.80
2018-12-14T00:37:34.202Z,21.50
2018-12-14T00:40:02.362Z,19.90
2018-12-14T00:42:30.474Z,20.90
2018-12-14T00:44:58.586Z,19.40
2018-12-14T00:47:26.754Z,20.03
2018-12-14T00:49:54.928Z,17.93
2018-12-14T00:52:23.108Z,20.10
2018-12-14T00:54:51.298Z,21.07
2018-12-14T00:57:19.485Z,20.40
2018-12-14T00:59:47.599Z,23.57
2018-12-14T01:02:21.323Z,18.20
2018-12-14T01:04:49.454Z,21.00
2018-12-14T01:07:17.541Z,22.33
2018-12-14T01:09:45.793Z,22.40
2018-12-14T01:12:13.919Z,21.13
2018-12-14T01:14:42.191Z,19.93
2018-12-14T01:17:10.348Z,20.57
2018-12-14T01:19:38.581Z,21.37
2018-12-14T01:22:06.661Z,20.97
2018-12-14T01:24:34.850Z,19.50
2018-12-14T01:27:03.075Z,22.40
2018-12-14T01:29:31.177Z,21.70
2018-12-14T01:31:59.317Z,21.87
2018-12-14T01:34:27.475Z,24.03
2018-12-14T01:36:55.726Z,22.57
2018-12-14T01:39:23.805Z,21.73
2018-12-14T01:41:51.978Z,23.80
2018-12-14T01:44:20.215Z,23.80
2018-12-14T01:46:48.434Z,21.80
2018-12-14T01:49:16.676Z,20.80
2018-12-14T01:51:44.815Z,22.00
2018-12-14T01:54:13.036Z,22.10
2018-12-14T01:56:41.204Z,21.33
2018-12-14T01:59:09.302Z,21.73
2018-12-14T02:01:37.400Z,19.57
2018-12-14T02:04:05.552Z,21.40
2018-12-14T02:06:33.716Z,22.83
2018-12-14T02:09:01.889Z,22.60
2018-12-14T02:11:30.005Z,21.00
2018-12-14T02:13:58.240Z,21.00
2018-12-14T02:16:26.485Z,20.03
2018-12-14T02:18:54.689Z,22.30
2018-12-14T02:21:22.777Z,20.67
2018-12-14T02:23:50.928Z,20.50
2018-12-14T02:26:19.101Z,20.73
2018-12-14T02:28:47.252Z,21.23
2018-12-14T02:31:15.416Z,22.53
2018-12-14T02:33:43.568Z,19.90
2018-12-14T02:36:11.733Z,21.03
2018-12-14T02:38:39.966Z,22.20
2018-12-14T02:41:08.170Z,21.63
2018-12-14T02:43:36.570Z,22.77
2018-12-14T02:46:04.925Z,23.50
2018-12-14T02:48:33.118Z,23.53
2018-12-14T02:51:01.249Z,20.33
2018-12-14T02:53:29.380Z,24.30
2018-12-14T02:55:57.642Z,22.07
2018-12-14T02:58:25.842Z,23.23
2018-12-14T03:00:54.065Z,21.70
2018-12-14T03:03:22.216Z,20.33
2018-12-14T03:05:50.478Z,20.07
2018-12-14T03:08:18.759Z,21.53
2018-12-14T03:10:46.955Z,21.27
2018-12-14T03:13:15.171Z,21.27
2018-12-14T03:15:43.390Z,20.40
2018-12-14T03:18:11.584Z,21.17
2018-12-14T03:20:39.879Z,19.53
2018-12-14T03:23:08.026Z,19.33
2018-12-14T03:25:36.169Z,19.17
2018-12-14T03:28:04.398Z,20.77
2018-12-14T03:30:32.539Z,20.47
2018-12-14T03:33:00.838Z,19.40
2018-12-14T03:35:28.948Z,21.10
2018-12-14T03:37:57.112Z,21.27
2018-12-14T03:40:25.245Z,19.90
2018-12-14T03:42:53.379Z,22.20
2018-12-14T03:45:21.578Z,19.47
2018-12-14T03:47:49.707Z,20.80
2018-12-14T03:50:17.911Z,20.37
2018-12-14T03:52:46.032Z,20.10
2018-12-14T03:55:14.156Z,21.07
2018-12-14T03:57:42.376Z,21.13
2018-12-14T04:00:11.034Z,20.87
2018-12-14T04:02:39.167Z,21.47
2018-12-14T04:05:07.433Z,22.37
2018-12-14T04:07:35.575Z,19.27
2018-12-14T04:10:04.499Z,22.50
2018-12-14T04:12:32.729Z,23.10
2018-12-14T04:15:00.844Z,20.93
2018-12-14T04:17:28.973Z,24.43
2018-12-14T04:19:57.092Z,22.20
2018-12-14T04:22:25.284Z,22.33
2018-12-14T04:24:54.508Z,21.17
2018-12-14T04:27:22.825Z,22.07
2018-12-14T04:29:50.949Z,23.00
2018-12-14T04:32:19.080Z,25.30
2018-12-14T04:34:47.285Z,23.30
2018-12-14T04:37:15.426Z,24.87
2018-12-14T04:39:43.631Z,22.90
2018-12-14T04:42:11.921Z,23.70
2018-12-14T04:44:40.615Z,23.27
2018-12-14T04:47:08.828Z,24.57
2018-12-14T04:49:37.323Z,24.80
2018-12-14T04:52:09.976Z,25.47
2018-12-14T04:54:38.276Z,26.17
2018-12-14T04:57:06.461Z,24.93
2018-12-14T04:59:34.648Z,25.90
2018-12-14T05:02:02.853Z,25.97
2018-12-14T05:04:31.083Z,26.20
2018-12-14T05:06:59.208Z,25.10
2018-12-14T05:09:27.416Z,25.70
2018-12-14T05:11:55.624Z,28.57
2018-12-14T05:14:24.052Z,28.93
2018-12-14T05:16:52.254Z,25.87
2018-12-14T05:19:20.385Z,25.60
2018-12-14T05:21:48.599Z,24.50
2018-12-14T05:24:16.974Z,26.77
2018-12-14T05:26:45.106Z,26.30
2018-12-14T05:29:13.288Z,24.60
2018-12-14T05:31:41.522Z,26.03
2018-12-14T05:34:09.720Z,26.60
2018-12-14T05:36:37.862Z,24.97
2018-12-14T05:39:06.813Z,25.47
2018-12-14T05:41:34.995Z,25.87
2018-12-14T05:44:03.396Z,23.93
2018-12-14T05:46:31.618Z,24.10
2018-12-14T05:48:59.812Z,24.27
2018-12-14T05:51:27.957Z,25.30
2018-12-14T05:53:56.049Z,25.40
2018-12-14T05:56:24.685Z,22.47
2018-12-14T05:58:52.853Z,20.87
2018-12-14T06:01:21.084Z,22.70
2018-12-14T06:03:51.535Z,21.07
2018-12-14T06:06:19.973Z,18.77
2018-12-14T06:08:48.072Z,20.53
2018-12-14T06:11:16.227Z,20.00
2018-12-14T06:13:44.336Z,20.60
2018-12-14T06:16:12.521Z,19.43
2018-12-14T06:18:40.671Z,18.90
2018-12-14T06:21:08.817Z,19.87
2018-12-14T06:23:36.993Z,18.50
2018-12-14T06:26:05.129Z,18.70
2018-12-14T06:28:33.246Z,21.20
2018-12-14T06:31:01.463Z,20.40
2018-12-14T06:33:29.555Z,20.77
2018-12-14T06:35:57.773Z,18.87
2018-12-14T06:38:25.984Z,19.90
2018-12-14T06:40:54.105Z,19.70
2018-12-14T06:43:22.249Z,19.13
2018-12-14T06:45:53.452Z,19.80
2018-12-14T06:48:21.586Z,20.27
2018-12-14T06:50:49.717Z,20.70
2018-12-14T06:53:18.243Z,19.93
2018-12-14T06:55:46.433Z,18.13
2018-12-14T06:58:16.075Z,19.00
2018-12-14T07:00:44.184Z,18.20
2018-12-14T07:03:12.313Z,18.13
2018-12-14T07:05:40.435Z,16.93
2018-12-14T07:08:08.563Z,17.17
2018-12-14T07:10:36.684Z,17.70
2018-12-14T07:13:04.874Z,15.77
2018-12-14T07:15:33.066Z,15.90
2018-12-14T07:18:01.242Z,15.43
2018-12-14T07:20:29.785Z,15.77
2018-12-14T07:22:57.897Z,14.97
2018-12-14T07:25:26.089Z,18.33
2018-12-14T07:27:54.201Z,16.90
2018-12-14T07:30:22.345Z,15.10
2018-12-14T07:32:50.596Z,16.10
2018-12-14T07:35:18.785Z,16.33
2018-12-14T07:37:46.908Z,15.93
2018-12-14T07:40:15.333Z,15.43
2018-12-14T07:42:43.426Z,15.50
2018-12-14T07:45:11.641Z,14.40
2018-12-14T07:47:39.864Z,16.67
2018-12-14T07:50:08.110Z,16.00
2018-12-14T07:52:36.289Z,15.10
2018-12-14T07:55:04.533Z,15.43
2018-12-14T07:57:32.704Z,14.70
2018-12-14T08:00:00.868Z,15.37
2018-12-14T08:02:29.089Z,16.00
2018-12-14T08:04:57.380Z,16.30
2018-12-14T08:07:25.545Z,15.70
2018-12-14T08:09:53.697Z,14.97
2018-12-14T08:12:21.852Z,16.43
2018-12-14T08:14:49.961Z,16.60
2018-12-14T08:17:18.123Z,16.83
2018-12-14T08:19:46.293Z,16.70
2018-12-14T08:22:14.392Z,17.00
2018-12-14T08:24:42.548Z,17.10
2018-12-14T08:27:10.701Z,20.33
2018-12-14T08:29:38.907Z,17.33
2018-12-14T08:32:07.070Z,18.03
2018-12-14T08:34:35.229Z,18.77
2018-12-14T08:37:03.386Z,17.00
2018-12-14T08:39:31.542Z,18.07
2018-12-14T08:41:59.718Z,18.50
2018-12-14T08:44:27.870Z,18.33
2018-12-14T08:46:56.024Z,20.00
2018-12-14T08:49:24.230Z,19.60
2018-12-14T08:51:52.404Z,20.93
2018-12-14T08:54:20.651Z,21.77
2018-12-14T08:56:48.872Z,24.50
2018-12-14T08:59:16.972Z,24.67
2018-12-14T09:01:45.213Z,24.23
2018-12-14T09:04:14.902Z,24.90
2018-12-14T09:06:43.246Z,21.93
2018-12-14T09:09:11.464Z,23.53
2018-12-14T09:11:39.681Z,25.10
2018-12-14T09:14:07.885Z,24.07
2018-12-14T09:16:36.033Z,24.20
2018-12-14T09:19:04.177Z,26.60
2018-12-14T09:21:32.292Z,24.40
2018-12-14T09:24:00.376Z,23.37
2018-12-14T09:26:28.522Z,24.00
2018-12-14T09:28:57.056Z,24.03
2018-12-14T09:31:25.472Z,24.87
2018-12-14T09:33:53.687Z,23.60
2018-12-14T09:36:21.779Z,24.57
2018-12-14T09:38:49.871Z,23.70
2018-12-14T09:41:18.049Z,22.03
2018-12-14T09:43:46.181Z,22.10
2018-12-14T09:46:14.379Z,22.37
2018-12-14T09:48:42.533Z,23.20
2018-12-14T09:51:12.469Z,25.37
2018-12-14T09:53:40.849Z,25.23
2018-12-14T09:56:08.980Z,25.70
2018-12-14T09:58:37.119Z,24.40
2018-12-14T10:01:05.296Z,23.03
2018-12-14T10:03:33.565Z,24.33
2018-12-14T10:06:01.749Z,22.87
2018-12-14T10:08:29.937Z,21.97
2018-12-14T10:10:58.268Z,23.77
2018-12-14T10:13:26.465Z,23.00
2018-12-14T10:15:55.048Z,23.07
2018-12-14T10:18:23.252Z,21.30
2018-12-14T10:20:51.361Z,22.17
2018-12-14T10:23:19.505Z,21.33
2018-12-14T10:25:47.676Z,24.17
2018-12-14T10:28:15.981Z,23.17
2018-12-14T10:30:44.215Z,21.70
2018-12-14T10:33:12.340Z,22.00
2018-12-14T10:35:40.537Z,24.70
2018-12-14T10:38:08.829Z,21.90
2018-12-14T10:40:38.411Z,27.40
2018-12-14T10:43:06.701Z,23.40
2018-12-14T10:45:35.182Z,23.50
2018-12-14T10:48:03.452Z,25.57
2018-12-14T10:50:38.554Z,22.40
2018-12-14T10:53:05.945Z,25.43
2018-12-14T10:55:34.217Z,24.57
2018-12-14T10:58:02.470Z,23.93
2018-12-14T11:00:36.100Z,25.27
2018-12-14T11:03:11.278Z,24.07
2018-12-14T11:05:39.608Z,26.13
2018-12-14T11:08:07.862Z,24.23
2018-12-14T11:10:36.062Z,22.73
2018-12-14T11:13:04.324Z,25.70
2018-12-14T11:15:32.517Z,24.03
2018-12-14T11:18:00.617Z,25.37
2018-12-14T11:20:28.761Z,24.10
2018-12-14T11:22:56.875Z,25.10
2018-12-14T11:25:25.004Z,24.33
2018-12-14T11:27:53.167Z,25.80
2018-12-14T11:30:21.367Z,29.50
2018-12-14T11:32:49.472Z,27.77
2018-12-14T11:35:17.668Z,26.00
2018-12-14T11:37:45.796Z,26.10
2018-12-14T11:40:13.957Z,26.13
2018-12-14T11:42:42.064Z,26.70
2018-12-14T11:45:10.256Z,26.20
2018-12-14T11:47:38.429Z,26.53
2018-12-14T11:50:09.298Z,27.33
2018-12-14T11:52:37.408Z,23.53
2018-12-14T11:55:07.627Z,27.37
2018-12-14T11:57:35.938Z,27.53
2018-12-14T12:00:05.852Z,26.30
2018-12-14T12:02:33.970Z,26.60
2018-12-14T12:05:02.170Z,27.77
2018-12-14T12:07:30.410Z,27.37
2018-12-14T12:12:48.845Z,26.00
2018-12-14T12:15:17.091Z,27.40
2018-12-14T12:17:49.404Z,28.63
2018-12-14T12:20:15.715Z,26.73
2018-12-14T12:22:43.894Z,30.03
2018-12-14T12:25:12.130Z,38.47
2018-12-14T12:27:40.234Z,30.63
2018-12-14T12:30:09.187Z,27.40
2018-12-14T12:32:37.499Z,26.70
2018-12-14T12:35:05.750Z,27.20
2018-12-14T12:37:33.903Z,25.87
2018-12-14T12:40:02.074Z,28.80
2018-12-14T12:42:30.241Z,25.80
2018-12-14T12:44:58.395Z,29.20
2018-12-14T12:47:26.630Z,27.93
2018-12-14T12:49:54.829Z,29.80
2018-12-14T12:52:23.029Z,27.83
2018-12-14T12:54:51.258Z,27.37
2018-12-14T12:57:19.439Z,27.97
2018-12-14T12:59:47.543Z,27.40
2018-12-14T13:02:15.713Z,25.80
2018-12-14T13:04:44.086Z,26.40
2018-12-14T13:07:12.271Z,23.53
2018-12-14T13:09:40.503Z,25.13
2018-12-14T13:12:08.690Z,23.27
2018-12-14T13:14:40.079Z,22.90
2018-12-14T13:17:07.036Z,23.00
2018-12-14T13:19:35.207Z,24.07
2018-12-14T13:22:03.484Z,22.80
2018-12-14T13:24:31.701Z,24.30
2018-12-14T13:26:59.822Z,24.53
2018-12-14T13:29:27.987Z,23.00
2018-12-14T13:31:56.114Z,24.70
2018-12-14T13:34:24.288Z,21.67
2018-12-14T13:36:52.411Z,22.73
2018-12-14T13:39:20.594Z,23.20
2018-12-14T13:41:48.920Z,25.13
2018-12-14T13:44:17.188Z,24.03
2018-12-14T13:46:45.442Z,24.63
2018-12-14T13:49:13.614Z,24.27
2018-12-14T13:51:41.794Z,23.87
2018-12-14T13:54:09.969Z,23.70
2018-12-14T13:56:38.133Z,22.50
2018-12-14T13:59:06.314Z,23.30
2018-12-14T14:01:34.472Z,22.63
2018-12-14T14:04:02.723Z,25.43
2018-12-14T14:06:30.813Z,26.60
2018-12-14T14:08:59.050Z,23.00
2018-12-14T14:11:27.275Z,23.00
2018-12-14T14:13:55.431Z,23.97
2018-12-14T14:16:23.686Z,27.73
2018-12-14T14:18:51.801Z,24.50
2018-12-14T14:21:20.037Z,24.13
2018-12-14T14:23:48.277Z,25.57
2018-12-14T14:26:16.496Z,26.40
2018-12-14T14:28:44.733Z,25.43
2018-12-14T14:31:12.919Z,26.27
2018-12-14T14:33:41.027Z,24.97
2018-12-14T14:36:09.125Z,24.53
2018-12-14T14:38:37.305Z,27.90
2018-12-14T14:41:05.473Z,26.33
2018-12-14T14:43:33.735Z,29.23
2018-12-14T14:46:02.011Z,29.37
2018-12-14T14:48:30.240Z,27.27
2018-12-14T14:50:58.422Z,25.80
2018-12-14T14:53:26.604Z,27.90
2018-12-14T14:55:54.869Z,30.67
2018-12-14T14:58:22.966Z,25.53
2018-12-14T15:00:51.211Z,25.80
2018-12-14T15:03:19.453Z,26.17
2018-12-14T15:05:47.628Z,26.33
2018-12-14T15:08:15.723Z,25.40
2018-12-14T15:10:43.861Z,23.67
2018-12-14T15:13:11.966Z,23.40
2018-12-14T15:15:40.200Z,23.00
2018-12-14T15:18:08.429Z,23.93
2018-12-14T15:20:36.601Z,22.90
2018-12-14T15:23:04.777Z,23.90
2018-12-14T15:25:32.950Z,22.00
2018-12-14T15:28:01.030Z,26.30
2018-12-14T15:30:29.266Z,26.10
2018-12-14T15:32:57.414Z,25.73
2018-12-14T15:35:25.999Z,25.27
2018-12-14T15:37:54.170Z,25.60
2018-12-14T15:40:22.412Z,25.97
2018-12-14T15:42:50.625Z,25.83
2018-12-14T15:45:18.842Z,23.57
2018-12-14T15:47:47.083Z,22.43
2018-12-14T15:50:15.324Z,24.03
2018-12-14T15:52:43.478Z,22.93
2018-12-14T15:55:11.728Z,21.20
2018-12-14T15:57:39.978Z,23.07
2018-12-14T16:00:08.630Z,23.07
2018-12-14T16:02:36.730Z,22.00
2018-12-14T16:05:05.114Z,22.13
2018-12-14T16:07:33.333Z,22.10
2018-12-14T16:10:01.508Z,21.13
2018-12-14T16:12:29.611Z,21.80
2018-12-14T16:14:57.735Z,22.30
2018-12-14T16:17:25.951Z,22.97
2018-12-14T16:19:54.305Z,23.87
2018-12-14T16:22:22.595Z,23.03
2018-12-14T16:24:50.859Z,22.47
2018-12-14T16:27:19.102Z,22.17
2018-12-14T16:29:47.205Z,22.40
2018-12-14T16:32:15.454Z,23.03
2018-12-14T16:34:43.567Z,23.33
2018-12-14T16:37:11.750Z,27.33
2018-12-14T16:39:39.846Z,22.40
2018-12-14T16:42:08.032Z,27.97
2018-12-14T16:44:36.145Z,21.77
2018-12-14T16:47:04.382Z,21.50
2018-12-14T16:49:32.650Z,24.07
2018-12-14T16:52:00.881Z,21.63
2018-12-14T16:54:28.988Z,22.47
2018-12-14T16:56:57.262Z,20.70
2018-12-14T16:59:25.424Z,19.60
2018-12-14T17:01:53.596Z,21.47
2018-12-14T17:04:21.713Z,25.23
2018-12-14T17:06:49.901Z,23.30
2018-12-14T17:09:18.078Z,22.40
2018-12-14T17:11:46.396Z,19.90
2018-12-14T17:14:14.570Z,20.60
2018-12-14T17:16:42.745Z,19.07
2018-12-14T17:19:10.862Z,23.17
2018-12-14T17:21:38.951Z,19.33
2018-12-14T17:24:07.182Z,17.87
2018-12-14T17:26:35.341Z,18.70
2018-12-14T17:29:03.581Z,18.57
2018-12-14T17:31:31.691Z,17.57
2018-12-14T17:33:59.858Z,16.83
2018-12-14T17:36:28.094Z,16.63
2018-12-14T17:38:56.353Z,17.20
2018-12-14T17:41:24.532Z,18.63
2018-12-14T17:43:52.646Z,16.70
2018-12-14T17:46:20.810Z,18.00
2018-12-14T17:48:48.975Z,17.53
2018-12-14T17:51:17.106Z,17.27
2018-12-14T17:53:45.352Z,17.07
2018-12-14T17:56:13.529Z,18.10
2018-12-14T17:58:41.775Z,18.10
2018-12-14T18:01:09.946Z,17.20
2018-12-14T18:03:38.142Z,17.17
2018-12-14T18:06:06.260Z,17.33
2018-12-14T18:08:34.449Z,17.40
2018-12-14T18:11:02.666Z,16.50
2018-12-14T18:13:30.861Z,16.43
2018-12-14T18:15:59.060Z,16.43
2018-12-14T18:18:49.660Z,18.70
2018-12-14T18:21:18.098Z,17.87
2018-12-14T18:23:46.221Z,17.00
2018-12-14T18:26:14.314Z,17.70
2018-12-14T18:28:42.572Z,18.20
2018-12-14T18:31:10.749Z,17.20
2018-12-14T18:33:38.859Z,19.43
2018-12-14T18:36:07.122Z,19.23
2018-12-14T18:38:35.286Z,20.30
2018-12-14T18:41:03.568Z,20.77
2018-12-14T18:43:31.830Z,21.07
2018-12-14T18:46:00.059Z,20.33
2018-12-14T18:48:28.284Z,21.13
2018-12-14T18:50:56.458Z,22.70
2018-12-14T18:53:24.643Z,22.77
2018-12-14T18:55:52.934Z,21.80
2018-12-14T18:58:21.178Z,23.07
2018-12-14T19:00:49.299Z,22.23
2018-12-14T19:03:17.604Z,21.73
2018-12-14T19:05:45.865Z,24.27
2018-12-14T19:08:14.048Z,23.77
2018-12-14T19:10:42.274Z,24.90
2018-12-14T19:13:10.383Z,26.33
2018-12-14T19:15:38.494Z,22.47
2018-12-14T19:18:06.711Z,23.43
2018-12-14T19:20:34.844Z,25.23
2018-12-14T19:23:03.066Z,24.07
2018-12-14T19:25:31.278Z,23.80
2018-12-14T19:27:59.510Z,25.40
2018-12-14T19:30:27.644Z,25.93
2018-12-14T19:32:55.845Z,26.60
2018-12-14T19:35:24.133Z,27.30
2018-12-14T19:37:52.333Z,25.70
2018-12-14T19:40:20.781Z,26.37
2018-12-14T19:42:48.939Z,28.60
2018-12-14T19:45:17.159Z,28.40
2018-12-14T19:47:45.362Z,27.23
2018-12-14T19:50:13.674Z,26.23
2018-12-14T19:52:41.820Z,25.37
2018-12-14T19:55:10.098Z,28.80
2018-12-14T19:57:41.494Z,29.80
2018-12-14T20:00:11.715Z,28.77
2018-12-14T20:02:42.910Z,28.50
2018-12-14T20:05:12.114Z,31.03
2018-12-14T20:07:40.510Z,28.63
2018-12-14T20:10:08.844Z,31.27
2018-12-14T20:12:37.073Z,30.07
2018-12-14T20:15:05.857Z,31.60
2018-12-14T20:17:34.022Z,30.57
2018-12-14T20:20:02.233Z,32.60
2018-12-14T20:22:30.473Z,31.67
2018-12-14T20:24:58.642Z,29.67
2018-12-14T20:27:26.876Z,32.20
2018-12-14T20:29:55.061Z,29.50
2018-12-14T20:32:23.217Z,30.03
2018-12-14T20:34:52.495Z,30.00
2018-12-14T20:37:20.641Z,29.93
2018-12-14T20:39:48.768Z,30.97
2018-12-14T20:42:16.943Z,29.00
2018-12-14T20:44:45.106Z,31.27
2018-12-14T20:47:13.302Z,30.83
2018-12-14T20:49:41.402Z,31.50
2018-12-14T20:52:09.494Z,30.23
2018-12-14T20:54:37.615Z,29.77
2018-12-14T20:57:05.796Z,30.77
2018-12-14T20:59:33.940Z,31.10
2018-12-14T21:02:02.282Z,31.60
2018-12-14T21:04:30.499Z,29.30
2018-12-14T21:06:58.596Z,32.47
2018-12-14T21:09:26.835Z,29.07
2018-12-14T21:11:54.960Z,32.47
2018-12-14T21:14:23.169Z,30.43
2018-12-14T21:16:51.716Z,30.93
2018-12-14T21:19:19.814Z,32.03
2018-12-14T21:21:47.998Z,32.00
2018-12-14T21:24:16.380Z,31.33
2018-12-14T21:26:44.571Z,29.07
2018-12-14T21:29:16.009Z,32.17
2018-12-14T21:31:42.834Z,32.47
2018-12-14T21:34:11.046Z,31.37
2018-12-14T21:36:39.210Z,30.50
2018-12-14T21:39:07.432Z,31.87
2018-12-14T21:41:35.538Z,30.30
2018-12-14T21:44:03.785Z,33.00
2018-12-14T21:46:32.734Z,29.83
2018-12-14T21:49:01.022Z,30.00
2018-12-14T21:51:29.182Z,30.87
2018-12-14T21:53:57.290Z,29.63
2018-12-14T21:56:25.457Z,33.00
2018-12-14T21:58:53.619Z,32.63
2018-12-14T22:01:21.865Z,33.10
2018-12-14T22:03:50.097Z,32.73
2018-12-14T22:06:18.272Z,31.77
2018-12-14T22:08:46.383Z,34.30
2018-12-14T22:11:14.479Z,32.67
2018-12-14T22:13:42.730Z,32.30
2018-12-14T22:16:10.893Z,30.77
2018-12-14T22:18:39.004Z,34.03
2018-12-14T22:21:07.183Z,34.40
2018-12-14T22:23:35.269Z,33.43
2018-12-14T22:26:03.581Z,33.43
2018-12-14T22:28:31.670Z,34.70
2018-12-14T22:30:59.816Z,37.20
2018-12-14T22:33:27.986Z,34.43
2018-12-14T22:35:56.954Z,37.80
2018-12-14T22:38:25.276Z,36.00
2018-12-14T22:40:53.502Z,36.50
2018-12-14T22:43:21.747Z,37.50
2018-12-14T22:48:24.646Z,33.47
2018-12-14T22:50:52.738Z,33.17
2018-12-14T22:53:20.925Z,32.30
2018-12-14T22:55:49.094Z,33.87
2018-12-14T22:58:17.289Z,35.47
2018-12-14T23:00:51.446Z,34.70
2018-12-14T23:03:19.856Z,33.17
2018-12-14T23:05:48.402Z,36.80
2018-12-14T23:08:16.631Z,37.97
2018-12-14T23:10:44.766Z,35.80
2018-12-14T23:13:12.950Z,37.83
2018-12-14T23:15:41.123Z,36.30
2018-12-14T23:18:09.399Z,35.63
2018-12-14T23:20:37.596Z,35.20
2018-12-14T23:23:05.777Z,35.20
2018-12-14T23:25:34.012Z,37.17
2018-12-14T23:28:02.179Z,36.70
2018-12-14T23:30:30.277Z,36.10
2018-12-14T23:32:59.785Z,39.93
2018-12-14T23:35:29.029Z,37.07
2018-12-14T23:37:58.056Z,37.47
2018-12-14T23:40:27.445Z,37.00
2018-12-14T23:42:56.887Z,37.43
2018-12-14T23:45:26.467Z,38.33
2018-12-14T23:47:56.539Z,39.20
2018-12-14T23:50:26.062Z,38.10
2018-12-14T23:52:55.286Z,36.67
2018-12-14T23:55:24.959Z,35.37
2018-12-14T23:57:53.084Z,35.33
